Time;durP1;ratioP1;P1;durP2;ratioP2;P2;SDS_P1;SDS_P2;PMS_P1;PMS_P2;Temp;Humidity;BMP_temperature;BMP_pressure;BME280_temperature;BME280_humidity;BME280_pressure;Samples;Min_cycle;Max_cycle;Signal;HPM_P1;HPM_P2
2023/02/03 00:02:06;;;;;;;8.70;1.85;;;9.20;99.90;;;;;;5112004;28;20122;-73
2023/02/03 00:04:31;;;;;;;6.00;1.60;;;9.20;99.90;;;;;;5111698;28;20108;-73
2023/02/03 00:06:57;;;;;;;6.75;2.33;;;9.10;99.90;;;;;;5111644;28;20058;-73
2023/02/03 00:09:22;;;;;;;10.00;1.83;;;9.10;99.90;;;;;;5111336;28;20043;-73
2023/02/03 00:11:48;;;;;;;6.90;2.13;;;9.10;99.90;;;;;;5111772;28;20040;-73
2023/02/03 00:14:13;;;;;;;5.68;1.77;;;9.20;99.90;;;;;;5111026;28;20043;-72
2023/02/03 00:16:39;;;;;;;6.40;1.77;;;9.30;99.90;;;;;;5112796;28;20505;-73
2023/02/03 00:19:04;;;;;;;5.70;1.55;;;9.20;99.90;;;;;;5110988;28;20108;-73
2023/02/03 00:21:30;;;;;;;11.30;2.08;;;9.20;99.90;;;;;;5111284;28;20039;-72
2023/02/03 00:23:55;;;;;;;4.25;1.52;;;9.10;99.90;;;;;;5112499;28;20047;-73
2023/02/03 00:26:22;;;;;;;7.45;2.10;;;9.20;99.90;;;;;;5111323;28;20067;-73
2023/02/03 00:28:48;;;;;;;6.07;1.98;;;9.20;99.90;;;;;;5111276;28;20532;-73
2023/02/03 00:31:19;;;;;;;5.85;1.45;;;9.10;99.90;;;;;;5111289;28;20043;-73
2023/02/03 00:33:45;;;;;;;6.47;1.80;;;9.10;99.90;;;;;;5112500;28;20118;-73
2023/02/03 00:36:11;;;;;;;5.50;1.98;;;9.10;99.90;;;;;;5111324;28;20047;-73
2023/02/03 00:38:37;;;;;;;5.88;2.00;;;9.10;99.90;;;;;;5110602;28;20043;-73
2023/02/03 00:41:02;;;;;;;9.68;1.98;;;9.20;99.90;;;;;;5112218;28;20040;-73
2023/02/03 00:43:28;;;;;;;6.75;2.28;;;9.20;99.90;;;;;;5110950;28;20367;-73
2023/02/03 00:45:53;;;;;;;10.15;1.67;;;9.10;99.90;;;;;;5110481;28;20046;-73
2023/02/03 00:48:19;;;;;;;6.90;1.88;;;9.10;99.90;;;;;;5110801;28;20410;-73
2023/02/03 00:50:46;;;;;;;6.68;1.80;;;9.00;99.90;;;;;;5110564;28;20425;-73
2023/02/03 00:53:11;;;;;;;8.27;2.13;;;9.00;99.90;;;;;;5112056;28;20048;-73
2023/02/03 00:55:37;;;;;;;7.15;1.73;;;9.10;99.90;;;;;;5110823;28;20073;-73
2023/02/03 00:58:02;;;;;;;6.50;1.98;;;9.10;99.90;;;;;;5110804;28;20398;-73
2023/02/03 01:00:28;;;;;;;7.40;1.58;;;9.00;99.90;;;;;;5110327;28;20035;-73
2023/02/03 01:02:54;;;;;;;5.00;2.00;;;9.00;99.90;;;;;;5111952;28;20042;-73
2023/02/03 01:05:19;;;;;;;4.88;1.63;;;9.00;99.90;;;;;;5110541;28;20119;-73
2023/02/03 01:07:45;;;;;;;8.23;1.98;;;9.00;99.90;;;;;;5111946;28;20085;-73
2023/02/03 01:10:10;;;;;;;5.25;1.88;;;9.00;99.90;;;;;;5111435;28;20040;-73
2023/02/03 01:12:36;;;;;;;4.78;1.70;;;9.00;99.90;;;;;;5111971;28;20042;-73
2023/02/03 01:15:02;;;;;;;8.32;2.45;;;9.10;99.90;;;;;;5110624;28;20075;-73
2023/02/03 01:17:27;;;;;;;6.65;1.80;;;9.10;99.90;;;;;;5110587;28;20047;-73
2023/02/03 01:19:53;;;;;;;9.40;2.10;;;9.10;99.90;;;;;;5110259;28;20092;-73
2023/02/03 01:22:18;;;;;;;8.52;2.15;;;9.00;99.90;;;;;;5110627;28;20036;-73
2023/02/03 01:24:44;;;;;;;10.60;1.95;;;9.00;99.90;;;;;;5110432;28;20028;-73
2023/02/03 01:27:09;;;;;;;7.80;2.45;;;9.00;99.90;;;;;;5110583;28;20426;-73
2023/02/03 01:29:35;;;;;;;11.95;2.17;;;8.90;99.90;;;;;;5110352;28;20051;-73
2023/02/03 01:32:00;;;;;;;7.55;2.78;;;9.00;99.90;;;;;;5110582;28;20031;-73
2023/02/03 01:34:26;;;;;;;8.10;2.05;;;8.90;99.90;;;;;;5110384;28;20161;-73
2023/02/03 01:36:51;;;;;;;5.22;1.67;;;8.90;99.90;;;;;;5110340;28;20089;-73
2023/02/03 01:39:17;;;;;;;9.73;1.85;;;8.90;99.90;;;;;;5109909;28;20040;-73
2023/02/03 01:41:43;;;;;;;10.15;2.47;;;9.00;99.90;;;;;;5110280;28;20032;-73
2023/02/03 01:44:33;;;;;;;9.77;2.03;;;9.10;99.90;;;;;;5110634;28;20036;-73
2023/02/03 01:46:59;;;;;;;9.75;2.17;;;9.10;99.90;;;;;;5111572;28;20047;-73
2023/02/03 01:49:31;;;;;;;6.72;1.85;;;9.00;99.90;;;;;;5110002;28;20047;-73
2023/02/03 01:51:57;;;;;;;9.43;3.45;;;9.10;99.90;;;;;;5111580;28;20661;-73
2023/02/03 01:54:27;;;;;;;8.40;2.60;;;9.10;99.90;;;;;;5111696;28;20039;-73
2023/02/03 01:56:57;;;;;;;9.90;2.35;;;9.20;99.90;;;;;;5110161;28;20040;-73
2023/02/03 01:59:24;;;;;;;6.00;2.03;;;9.10;99.90;;;;;;5113110;28;20578;-73
2023/02/03 02:01:51;;;;;;;6.55;1.95;;;9.30;99.90;;;;;;5114064;28;20039;-73
2023/02/03 02:04:17;;;;;;;6.47;1.92;;;9.20;99.90;;;;;;5114200;28;20038;-73
2023/02/03 02:06:46;;;;;;;12.93;2.17;;;9.20;99.90;;;;;;5114048;28;20039;-73
2023/02/03 02:09:13;;;;;;;7.53;1.80;;;9.20;99.90;;;;;;5111500;28;20078;-73
2023/02/03 02:11:38;;;;;;;7.93;2.10;;;9.10;99.90;;;;;;5115160;28;20031;-73
2023/02/03 02:14:05;;;;;;;8.75;3.28;;;9.20;99.90;;;;;;5115149;28;20118;-73
2023/02/03 02:16:52;;;;;;;8.88;2.50;;;9.20;99.90;;;;;;5113742;28;20554;-73
2023/02/03 02:19:55;;;;;;;6.15;2.20;;;9.10;99.90;;;;;;5113317;28;20123;-73
2023/02/03 02:22:46;;;;;;;8.45;2.22;;;9.10;99.90;;;;;;5113660;28;20127;-73
2023/02/03 02:25:43;;;;;;;9.15;2.22;;;9.20;99.90;;;;;;5109691;28;20086;-73
2023/02/03 02:28:36;;;;;;;15.07;2.33;;;9.10;99.90;;;;;;5113546;28;20047;-73
2023/02/03 02:31:26;;;;;;;12.45;2.83;;;9.00;99.90;;;;;;5113943;28;20047;-73
2023/02/03 02:33:58;;;;;;;4.95;1.98;;;9.10;99.90;;;;;;5113771;28;20188;-73
2023/02/03 02:36:35;;;;;;;14.60;3.45;;;9.10;99.90;;;;;;5114975;28;20040;-73
2023/02/03 02:39:16;;;;;;;17.17;3.03;;;9.10;99.90;;;;;;5113022;28;20047;-73
2023/02/03 02:42:07;;;;;;;19.85;3.17;;;9.10;99.90;;;;;;5114951;28;20035;-73
2023/02/03 02:44:38;;;;;;;13.32;3.03;;;9.10;99.90;;;;;;5113312;28;20055;-73
2023/02/03 02:47:18;;;;;;;6.30;2.20;;;9.10;99.90;;;;;;5114625;28;20035;-73
2023/02/03 02:50:00;;;;;;;9.35;2.67;;;9.10;99.90;;;;;;5114088;28;20035;-73
2023/02/03 02:52:30;;;;;;;8.23;2.20;;;9.20;99.90;;;;;;5114584;28;20051;-73
2023/02/03 02:55:02;;;;;;;11.35;2.30;;;9.10;99.90;;;;;;5113076;28;20039;-73
2023/02/03 02:57:30;;;;;;;9.98;2.47;;;9.10;99.90;;;;;;5113045;28;20490;-73
2023/02/03 02:59:56;;;;;;;8.50;2.30;;;9.00;99.90;;;;;;5112656;28;20414;-73
2023/02/03 03:02:26;;;;;;;15.27;2.80;;;9.10;99.90;;;;;;5112943;28;20040;-73
2023/02/03 03:04:51;;;;;;;7.75;2.15;;;9.20;99.90;;;;;;5112864;28;20035;-73
2023/02/03 03:07:22;;;;;;;9.02;2.28;;;9.20;99.90;;;;;;5095821;28;20042;-73
2023/02/03 03:09:57;;;;;;;10.20;2.70;;;9.10;99.90;;;;;;5111953;28;20080;-73
2023/02/03 03:12:36;;;;;;;9.10;1.95;;;9.20;99.90;;;;;;5112767;28;20505;-73
2023/02/03 03:15:16;;;;;;;11.95;2.22;;;9.20;99.90;;;;;;5112665;28;20043;-73
2023/02/03 03:17:47;;;;;;;13.40;2.30;;;9.20;99.90;;;;;;5112981;28;20075;-73
2023/02/03 03:20:18;;;;;;;13.27;2.55;;;9.20;99.90;;;;;;5112302;28;20547;-73
2023/02/03 03:22:50;;;;;;;11.52;3.53;;;9.20;99.90;;;;;;5112642;28;20039;-73
2023/02/03 03:25:20;;;;;;;10.85;2.28;;;9.10;99.90;;;;;;5112530;28;20039;-73
2023/02/03 03:27:51;;;;;;;8.13;2.90;;;9.10;99.90;;;;;;5113948;28;20123;-73
2023/02/03 03:30:24;;;;;;;11.48;2.83;;;9.10;99.90;;;;;;5112123;28;20039;-73
2023/02/03 03:32:50;;;;;;;4.32;2.15;;;9.00;99.90;;;;;;5112629;28;20532;-73
2023/02/03 03:35:16;;;;;;;10.85;2.58;;;9.10;99.90;;;;;;5111034;28;20047;-73
2023/02/03 03:38:03;;;;;;;11.70;3.22;;;9.00;99.90;;;;;;5111238;28;20054;-73
2023/02/03 03:40:36;;;;;;;8.82;2.80;;;9.00;99.90;;;;;;5111506;28;20064;-73
2023/02/03 03:43:09;;;;;;;13.00;2.73;;;9.10;99.90;;;;;;5112546;28;20085;-73
2023/02/03 03:45:42;;;;;;;7.15;2.33;;;9.10;99.90;;;;;;5113463;28;20036;-73
2023/02/03 03:48:23;;;;;;;;;;;9.10;99.90;;;;;;5112328;28;20039;-73
2023/02/03 03:50:54;;;;;;;11.27;2.90;;;9.10;99.90;;;;;;5113052;28;20279;-73
2023/02/03 03:53:22;;;;;;;8.30;2.15;;;9.10;99.90;;;;;;5112284;28;20039;-73
2023/02/03 03:55:51;;;;;;;9.68;2.67;;;9.20;99.90;;;;;;5111754;28;20049;-73
2023/02/03 03:58:23;;;;;;;9.13;2.60;;;9.20;99.90;;;;;;5113039;28;20084;-73
2023/02/03 04:00:50;;;;;;;9.43;2.72;;;9.10;99.90;;;;;;5111671;28;20402;-73
2023/02/03 04:03:22;;;;;;;13.15;2.97;;;9.20;99.90;;;;;;5113160;28;20093;-73
2023/02/03 04:05:47;;;;;;;8.93;2.40;;;9.10;99.90;;;;;;5113042;28;20100;-73
2023/02/03 04:08:13;;;;;;;11.23;3.17;;;9.10;99.90;;;;;;5111660;28;20039;-73
2023/02/03 04:10:41;;;;;;;11.65;2.50;;;9.20;99.90;;;;;;5112671;27;20044;-73
2023/02/03 04:13:08;;;;;;;11.48;2.33;;;9.10;99.90;;;;;;5112816;28;20501;-73
2023/02/03 04:15:34;;;;;;;9.00;2.90;;;9.20;99.90;;;;;;5111382;28;20084;-73
2023/02/03 04:18:03;;;;;;;7.90;2.40;;;9.20;99.90;;;;;;5112630;28;20044;-73
2023/02/03 04:20:29;;;;;;;11.00;2.50;;;9.20;99.90;;;;;;5110116;28;20126;-73
2023/02/03 04:22:55;;;;;;;12.23;2.75;;;9.10;99.90;;;;;;5111361;28;20039;-73
2023/02/03 04:25:21;;;;;;;9.88;2.40;;;9.20;99.90;;;;;;5111440;28;20123;-73
2023/02/03 04:27:47;;;;;;;10.63;3.05;;;9.30;99.90;;;;;;5111205;28;20040;-73
2023/02/03 04:30:12;;;;;;;7.03;2.20;;;9.30;99.90;;;;;;5110820;28;20043;-73
2023/02/03 04:32:38;;;;;;;9.73;2.65;;;9.30;99.90;;;;;;5110967;28;20522;-73
2023/02/03 04:35:05;;;;;;;11.25;2.13;;;9.20;99.90;;;;;;5112387;28;20085;-73
2023/02/03 04:37:31;;;;;;;6.65;2.40;;;9.30;99.90;;;;;;5111116;28;20150;-73
2023/02/03 04:39:57;;;;;;;7.75;2.50;;;9.20;99.90;;;;;;5110489;28;20079;-73
2023/02/03 04:42:23;;;;;;;7.20;2.38;;;9.20;99.90;;;;;;5112279;28;20031;-73
2023/02/03 04:44:49;;;;;;;10.00;2.67;;;9.20;99.90;;;;;;5110982;28;20039;-73
2023/02/03 04:47:16;;;;;;;10.65;2.42;;;9.20;99.90;;;;;;5111271;28;20044;-73
2023/02/03 04:49:41;;;;;;;12.68;2.85;;;9.30;99.90;;;;;;5110381;28;20048;-73
2023/02/03 04:52:07;;;;;;;11.85;3.17;;;9.30;99.90;;;;;;5111225;28;20111;-73
2023/02/03 04:54:33;;;;;;;9.10;2.55;;;9.30;99.90;;;;;;5110586;28;20117;-73
2023/02/03 04:56:59;;;;;;;15.90;3.33;;;9.30;99.90;;;;;;5111839;28;20114;-72
2023/02/03 04:59:25;;;;;;;14.77;2.28;;;9.30;99.90;;;;;;5110191;28;20486;-73
2023/02/03 05:01:50;;;;;;;11.18;2.55;;;9.40;99.90;;;;;;5111060;28;20123;-73
2023/02/03 05:04:16;;;;;;;13.43;3.30;;;9.50;99.90;;;;;;5110627;28;20039;-73
2023/02/03 05:06:41;;;;;;;10.65;2.83;;;9.50;99.90;;;;;;5110771;28;20039;-73
2023/02/03 05:09:07;;;;;;;14.50;2.40;;;9.40;99.90;;;;;;5110233;28;20494;-73
2023/02/03 05:11:33;;;;;;;8.80;2.60;;;9.50;99.90;;;;;;5110705;28;20039;-73
2023/02/03 05:13:58;;;;;;;11.38;3.03;;;9.40;99.90;;;;;;5110607;28;20032;-73
2023/02/03 05:16:24;;;;;;;14.00;2.47;;;9.50;99.90;;;;;;5110805;28;20104;-73
2023/02/03 05:18:49;;;;;;;9.35;2.25;;;9.40;99.90;;;;;;5111586;28;20040;-73
2023/02/03 05:21:15;;;;;;;9.82;2.85;;;9.40;99.90;;;;;;5110247;28;20044;-73
2023/02/03 05:23:41;;;;;;;16.50;3.17;;;9.30;99.90;;;;;;5110619;28;20062;-73
2023/02/03 05:26:06;;;;;;;11.07;3.70;;;9.30;99.90;;;;;;5110555;28;20042;-73
2023/02/03 05:28:32;;;;;;;12.43;3.00;;;9.40;99.90;;;;;;5111395;28;20126;-73
2023/02/03 05:30:58;;;;;;;7.90;2.38;;;9.40;99.90;;;;;;5111731;28;20050;-73
2023/02/03 05:33:24;;;;;;;16.58;2.97;;;9.40;99.90;;;;;;5113676;28;20501;-73
2023/02/03 05:35:50;;;;;;;13.23;2.88;;;9.40;99.90;;;;;;5115820;28;20082;-73
2023/02/03 05:38:16;;;;;;;10.75;2.53;;;9.40;99.90;;;;;;5115871;28;20047;-73
2023/02/03 05:43:27;;;;;;;15.02;3.45;;;9.40;99.90;;;;;;5114619;28;20049;-73
2023/02/03 05:45:52;;;;;;;9.35;2.75;;;9.40;99.90;;;;;;5114537;28;20036;-73
2023/02/03 05:48:18;;;;;;;11.10;2.85;;;9.40;99.90;;;;;;5114709;28;20205;-73
2023/02/03 05:50:43;;;;;;;9.23;2.67;;;9.40;99.90;;;;;;5115331;28;20040;-73
2023/02/03 05:53:09;;;;;;;12.98;3.47;;;9.40;99.90;;;;;;5114376;28;20040;-73
2023/02/03 05:55:35;;;;;;;14.63;3.05;;;9.40;99.90;;;;;;5114328;28;20096;-73
2023/02/03 05:58:01;;;;;;;18.63;3.47;;;9.30;99.90;;;;;;5115729;28;20035;-73
2023/02/03 06:00:27;;;;;;;18.80;3.75;;;9.30;99.90;;;;;;5113762;28;20066;-73
2023/02/03 06:02:54;;;;;;;14.88;3.47;;;9.50;99.90;;;;;;5114376;28;20047;-73
2023/02/03 06:05:21;;;;;;;10.15;3.40;;;9.40;99.90;;;;;;5114041;28;20031;-73
2023/02/03 06:07:47;;;;;;;11.55;3.28;;;9.30;99.90;;;;;;5115361;28;20092;-73
2023/02/03 06:10:13;;;;;;;13.38;3.55;;;9.40;99.90;;;;;;5113682;28;20046;-73
2023/02/03 06:12:39;;;;;;;14.77;3.50;;;9.40;99.90;;;;;;5114065;28;20040;-72
2023/02/03 06:15:05;;;;;;;12.23;3.40;;;9.50;99.90;;;;;;5115442;28;20027;-73
2023/02/03 06:17:31;;;;;;;10.18;3.45;;;9.40;99.90;;;;;;5113987;28;20039;-73
2023/02/03 06:19:56;;;;;;;17.25;3.30;;;9.40;99.90;;;;;;5114618;28;20035;-73
2023/02/03 06:22:22;;;;;;;11.65;3.47;;;9.30;99.90;;;;;;5113782;28;20039;-73
2023/02/03 06:24:48;;;;;;;15.82;3.65;;;9.40;99.90;;;;;;5113861;28;20044;-74
2023/02/03 06:27:14;;;;;;;14.68;4.15;;;9.40;99.90;;;;;;5115027;28;20114;-73
2023/02/03 06:29:40;;;;;;;14.75;3.33;;;9.30;99.90;;;;;;5096633;28;20402;-74
2023/02/03 06:32:06;;;;;;;10.35;3.55;;;9.30;99.90;;;;;;5113592;28;20506;-74
2023/02/03 06:34:32;;;;;;;16.02;4.03;;;9.40;99.90;;;;;;5114876;28;20089;-73
2023/02/03 06:36:58;;;;;;;12.98;3.88;;;9.30;99.90;;;;;;5113559;28;20456;-72
2023/02/03 06:39:24;;;;;;;14.43;5.03;;;9.40;99.90;;;;;;5113010;28;20039;-72
2023/02/03 06:41:50;;;;;;;18.05;3.92;;;9.30;99.90;;;;;;5114299;28;20081;-74
2023/02/03 06:44:16;;;;;;;22.50;5.00;;;9.30;99.90;;;;;;5111449;28;20044;-74
2023/02/03 06:46:42;;;;;;;14.63;3.85;;;9.40;99.90;;;;;;5112323;28;20044;-74
2023/02/03 06:49:08;;;;;;;15.68;4.43;;;9.40;99.90;;;;;;5113089;28;20043;-74
2023/02/03 06:51:33;;;;;;;16.05;3.38;;;9.40;99.90;;;;;;5114905;28;20035;-74
2023/02/03 06:53:59;;;;;;;17.27;4.10;;;9.30;99.90;;;;;;5113421;28;20065;-74
2023/02/03 06:56:25;;;;;;;11.75;3.65;;;9.40;99.90;;;;;;5113299;28;20039;-74
2023/02/03 06:58:50;;;;;;;24.08;4.32;;;9.40;99.90;;;;;;5112902;28;20184;-74
2023/02/03 07:01:16;;;;;;;15.80;4.13;;;9.20;99.90;;;;;;5113126;28;20039;-74
2023/02/03 07:03:41;;;;;;;10.93;3.80;;;9.40;99.90;;;;;;5113215;28;20036;-74
2023/02/03 07:06:07;;;;;;;15.45;3.60;;;9.40;99.90;;;;;;5113198;28;20042;-74
2023/02/03 07:08:32;;;;;;;19.98;4.55;;;9.40;99.90;;;;;;5112583;28;20114;-74
2023/02/03 07:10:58;;;;;;;17.92;4.55;;;9.40;99.90;;;;;;5113061;28;20043;-74
2023/02/03 07:13:23;;;;;;;16.08;4.05;;;9.30;99.90;;;;;;5114456;28;20421;-74
2023/02/03 07:15:50;;;;;;;14.80;3.67;;;9.30;99.90;;;;;;5112965;28;20549;-74
2023/02/03 07:18:16;;;;;;;14.57;4.35;;;9.50;99.90;;;;;;5112844;28;20040;-74
2023/02/03 07:20:42;;;;;;;11.88;3.08;;;9.40;99.90;;;;;;5112442;28;20048;-73
2023/02/03 07:23:08;;;;;;;16.02;4.40;;;9.40;99.90;;;;;;5113082;28;20080;-73
2023/02/03 07:25:33;;;;;;;17.77;4.63;;;9.30;99.90;;;;;;5095790;28;20486;-73
2023/02/03 07:27:59;;;;;;;21.92;4.40;;;9.30;99.90;;;;;;5112740;28;20096;-73
2023/02/03 07:30:24;;;;;;;13.73;3.30;;;9.50;99.90;;;;;;5112313;28;20460;-73
2023/02/03 07:32:51;;;;;;;16.55;3.80;;;9.60;99.90;;;;;;5113868;28;20042;-73
2023/02/03 07:35:17;;;;;;;20.73;3.78;;;9.50;99.90;;;;;;5112854;28;20039;-73
2023/02/03 07:37:43;;;;;;;16.20;3.83;;;9.60;99.90;;;;;;5112492;28;20036;-73
2023/02/03 07:40:10;;;;;;;13.15;3.85;;;9.50;99.90;;;;;;5112129;28;20139;-73
2023/02/03 07:42:44;;;;;;;18.80;5.03;;;9.60;99.90;;;;;;5113803;28;20062;-73
2023/02/03 07:45:11;;;;;;;10.13;3.42;;;9.70;99.90;;;;;;5112632;28;20402;-73
2023/02/03 07:47:37;;;;;;;19.80;5.35;;;9.40;99.90;;;;;;5113495;28;20394;-73
2023/02/03 07:50:04;;;;;;;13.55;4.10;;;9.40;99.90;;;;;;5111949;28;20088;-73
2023/02/03 07:52:29;;;;;;;21.92;5.53;;;9.50;99.90;;;;;;5112283;28;20054;-73
2023/02/03 07:54:55;;;;;;;13.82;4.00;;;9.50;99.90;;;;;;5112249;28;20414;-73
2023/02/03 07:57:20;;;;;;;18.55;4.47;;;9.50;99.90;;;;;;5095261;28;20039;-73
2023/02/03 07:59:46;;;;;;;17.20;6.38;;;9.30;99.90;;;;;;5111628;28;20043;-73
2023/02/03 08:02:11;;;;;;;17.08;5.75;;;9.40;99.90;;;;;;5112005;28;20448;-73
2023/02/03 08:04:37;;;;;;;13.65;5.20;;;9.30;99.90;;;;;;5113527;28;20600;-73
2023/02/03 08:07:03;;;;;;;16.73;4.90;;;9.20;99.90;;;;;;5112082;28;20035;-73
2023/02/03 08:09:29;;;;;;;25.38;4.95;;;9.40;99.90;;;;;;5111748;28;20130;-73
2023/02/03 08:11:54;;;;;;;27.17;4.68;;;9.40;99.90;;;;;;5111862;28;20531;-73
2023/02/03 08:14:20;;;;;;;21.35;4.72;;;9.30;99.90;;;;;;5111590;28;20034;-73
2023/02/03 08:16:46;;;;;;;21.50;5.28;;;9.30;99.90;;;;;;5111680;28;20155;-73
2023/02/03 08:19:11;;;;;;;21.10;4.53;;;9.30;99.90;;;;;;5111276;28;20046;-73
2023/02/03 08:21:37;;;;;;;21.30;4.78;;;9.30;99.90;;;;;;5113112;28;20039;-73
2023/02/03 08:24:03;;;;;;;19.02;4.90;;;9.50;99.90;;;;;;5111953;28;20492;-73
2023/02/03 08:26:29;;;;;;;19.98;5.18;;;9.40;99.90;;;;;;5112818;28;20517;-73
2023/02/03 08:28:54;;;;;;;16.73;5.32;;;9.60;99.90;;;;;;5110952;28;20031;-73
2023/02/03 08:31:20;;;;;;;18.35;4.57;;;9.60;99.90;;;;;;5111426;28;20046;-73
2023/02/03 08:33:46;;;;;;;24.50;7.57;;;9.40;99.90;;;;;;5112149;28;20047;-73
2023/02/03 08:36:11;;;;;;;21.08;5.13;;;9.40;99.90;;;;;;5094868;28;20043;-73
2023/02/03 08:38:38;;;;;;;23.92;5.78;;;9.60;99.90;;;;;;5111079;28;20043;-73
2023/02/03 08:41:13;;;;;;;19.23;5.93;;;9.40;99.90;;;;;;5111349;28;20044;-73
2023/02/03 08:43:39;;;;;;;22.83;5.03;;;9.30;99.90;;;;;;5111192;28;20111;-73
2023/02/03 08:46:06;;;;;;;20.83;5.60;;;9.50;99.90;;;;;;5111222;28;20123;-73
2023/02/03 08:48:32;;;;;;;25.42;6.05;;;9.60;99.90;;;;;;5110945;28;20039;-73
2023/02/03 08:50:58;;;;;;;20.60;6.30;;;9.50;99.90;;;;;;5112703;28;20039;-73
2023/02/03 08:53:24;;;;;;;23.30;5.07;;;9.40;99.90;;;;;;5111126;28;20035;-72
2023/02/03 08:55:49;;;;;;;29.58;6.03;;;9.50;99.90;;;;;;5111395;28;20061;-73
2023/02/03 08:58:15;;;;;;;19.98;4.97;;;9.60;99.90;;;;;;5111030;28;20122;-73
2023/02/03 09:00:41;;;;;;;39.65;5.97;;;9.50;99.90;;;;;;5110730;28;20050;-73
2023/02/03 09:03:06;;;;;;;37.20;5.47;;;9.50;99.90;;;;;;5111321;28;20040;-73
2023/02/03 09:05:32;;;;;;;26.50;5.80;;;9.60;99.90;;;;;;5112424;28;20042;-73
2023/02/03 09:07:58;;;;;;;28.50;7.13;;;9.60;99.90;;;;;;5110481;28;20562;-73
2023/02/03 09:10:24;;;;;;;27.48;5.85;;;9.50;99.90;;;;;;5111980;28;20035;-73
2023/02/03 09:12:49;;;;;;;25.25;5.63;;;9.70;99.90;;;;;;5112215;28;20040;-73
2023/02/03 09:15:15;;;;;;;26.60;6.38;;;9.60;99.90;;;;;;5111114;28;20039;-73
2023/02/03 09:17:40;;;;;;;31.48;6.70;;;9.60;99.90;;;;;;5110913;28;20491;-73
2023/02/03 09:20:06;;;;;;;26.60;6.05;;;9.70;99.90;;;;;;5110477;28;20046;-73
2023/02/03 09:22:32;;;;;;;24.58;6.60;;;9.60;99.90;;;;;;5110852;28;20040;-73
2023/02/03 09:24:57;;;;;;;21.13;5.32;;;9.60;99.90;;;;;;5110834;28;20414;-73
2023/02/03 09:27:23;;;;;;;23.10;5.85;;;9.60;99.90;;;;;;5110733;28;20494;-73
2023/02/03 09:29:48;;;;;;;23.98;5.80;;;9.60;99.90;;;;;;5111636;28;20075;-73
2023/02/03 09:32:14;;;;;;;29.90;5.90;;;9.70;99.90;;;;;;5110767;28;20097;-73
2023/02/03 09:34:40;;;;;;;22.50;6.35;;;9.80;99.90;;;;;;5112062;28;20537;-73
2023/02/03 09:37:06;;;;;;;21.13;5.45;;;9.70;99.90;;;;;;5111017;28;20086;-73
2023/02/03 09:39:32;;;;;;;28.17;6.82;;;9.60;99.90;;;;;;5110242;28;20040;-73
2023/02/03 09:42:30;;;;;;;25.88;5.45;;;9.70;99.90;;;;;;5110687;28;20043;-73
2023/02/03 09:45:15;;;;;;;31.95;6.07;;;9.80;99.90;;;;;;5110907;28;20126;-73
2023/02/03 09:47:42;;;;;;;25.92;5.70;;;9.70;99.90;;;;;;5110626;28;20035;-73
2023/02/03 09:50:20;;;;;;;24.30;5.10;;;9.80;99.90;;;;;;5110568;28;20516;-73
2023/02/03 09:52:47;;;;;;;26.40;7.38;;;9.90;99.90;;;;;;5110876;28;20043;-73
2023/02/03 09:55:15;;;;;;;27.60;5.60;;;9.90;99.90;;;;;;5110568;28;20061;-73
2023/02/03 09:57:50;;;;;;;24.35;6.68;;;9.80;99.90;;;;;;5110495;28;20040;-73
2023/02/03 10:00:24;;;;;;;27.92;6.10;;;9.80;99.90;;;;;;5111396;28;20044;-73
2023/02/03 10:03:08;;;;;;;29.27;5.88;;;10.00;99.90;;;;;;5110521;28;20042;-73
2023/02/03 10:05:51;;;;;;;32.50;6.65;;;9.90;99.90;;;;;;5110530;28;20085;-73
2023/02/03 10:08:47;;;;;;;28.13;6.78;;;9.80;99.90;;;;;;5110280;28;20556;-73
2023/02/03 10:11:39;;;;;;;43.85;7.97;;;9.90;99.90;;;;;;5111703;28;20044;-73
2023/02/03 10:14:22;;;;;;;29.02;6.13;;;9.90;99.90;;;;;;5111906;28;20041;-73
2023/02/03 10:17:06;;;;;;;34.88;8.02;;;9.80;99.90;;;;;;5110648;28;20498;-73
2023/02/03 10:19:42;;;;;;;34.08;7.47;;;9.90;99.90;;;;;;5112744;28;20115;-73
2023/02/03 10:22:12;;;;;;;32.17;6.05;;;9.80;99.90;;;;;;5113995;28;20035;-73
2023/02/03 10:24:47;;;;;;;30.38;6.80;;;9.80;99.90;;;;;;5113829;28;20032;-73
2023/02/03 10:27:17;;;;;;;29.42;6.45;;;9.90;99.90;;;;;;5113920;28;20118;-72
2023/02/03 10:29:43;;;;;;;31.70;6.65;;;9.90;99.90;;;;;;5096401;28;20043;-73
2023/02/03 10:32:12;;;;;;;32.53;6.65;;;9.90;99.90;;;;;;5113500;28;20046;-68
2023/02/03 10:34:38;;;;;;;29.20;7.20;;;10.20;99.90;;;;;;5114049;28;20040;-69
2023/02/03 10:37:16;;;;;;;25.65;6.55;;;10.20;99.90;;;;;;5113742;28;20043;-69
2023/02/03 10:39:47;;;;;;;25.70;5.90;;;10.20;99.90;;;;;;5111593;28;20407;-68
2023/02/03 10:42:13;;;;;;;30.42;7.60;;;10.30;99.90;;;;;;5111083;28;20035;-68
2023/02/03 10:44:42;;;;;;;25.75;6.25;;;10.30;99.90;;;;;;5112930;28;20094;-69
2023/02/03 10:47:24;;;;;;;34.13;6.75;;;10.30;99.90;;;;;;5111181;28;20085;-68
2023/02/03 10:49:53;;;;;;;38.95;8.45;;;10.40;99.90;;;;;;5111444;28;20039;-68
2023/02/03 10:52:27;;;;;;;26.83;6.18;;;10.40;99.90;;;;;;5111732;28;20531;-68
2023/02/03 10:54:53;;;;;;;28.05;7.22;;;10.40;99.90;;;;;;5113120;28;20071;-68
2023/02/03 10:57:19;;;;;;;28.23;7.55;;;10.50;99.90;;;;;;5110864;28;20110;-68
2023/02/03 10:59:46;;;;;;;34.40;6.57;;;10.50;99.90;;;;;;5112236;28;20154;-68
2023/02/03 11:02:24;;;;;;;29.33;7.13;;;10.30;99.90;;;;;;5110613;28;20035;-68
2023/02/03 11:05:16;;;;;;;28.80;7.03;;;10.30;99.90;;;;;;5111875;28;20061;-68
2023/02/03 11:07:43;;;;;;;40.78;7.90;;;10.30;99.90;;;;;;5111856;28;20040;-68
2023/02/03 11:10:34;;;;;;;36.95;7.82;;;10.20;99.90;;;;;;5111263;28;20035;-68
2023/02/03 11:13:18;;;;;;;34.53;8.63;;;10.20;99.90;;;;;;5110800;28;20047;-68
2023/02/03 11:15:55;;;;;;;34.45;7.63;;;10.20;99.90;;;;;;5110592;28;20047;-68
2023/02/03 11:18:52;;;;;;;35.40;8.80;;;10.20;99.90;;;;;;5111319;27;20469;-68
2023/02/03 11:21:21;;;;;;;32.35;8.55;;;10.30;99.90;;;;;;5110064;28;20040;-68
2023/02/03 11:23:55;;;;;;;33.45;8.07;;;10.30;99.90;;;;;;5111637;28;20070;-68
2023/02/03 11:26:26;;;;;;;37.75;8.15;;;10.30;99.90;;;;;;5111224;28;20085;-68
2023/02/03 11:28:54;;;;;;;36.95;6.32;;;10.20;99.90;;;;;;5110090;28;20127;-68
2023/02/03 11:31:30;;;;;;;34.83;7.43;;;10.20;99.90;;;;;;5110942;28;20048;-68
2023/02/03 11:33:58;;;;;;;30.65;6.40;;;10.20;99.90;;;;;;5112094;27;20219;-68
2023/02/03 11:36:26;;;;;;;30.08;7.40;;;10.20;99.90;;;;;;5108121;28;20040;-68
2023/02/03 11:38:53;;;;;;;33.25;8.57;;;10.20;99.90;;;;;;5112089;28;20516;-68
2023/02/03 11:41:20;;;;;;;32.00;7.65;;;10.20;99.90;;;;;;5112650;28;20557;-68
2023/02/03 11:43:47;;;;;;;32.85;6.88;;;10.20;99.90;;;;;;5111944;28;20052;-68
2023/02/03 11:46:13;;;;;;;25.67;5.95;;;10.20;99.90;;;;;;5111651;28;20065;-71
2023/02/03 11:48:59;;;;;;;36.00;8.82;;;10.20;99.90;;;;;;5111425;28;20027;-68
2023/02/03 11:51:45;;;;;;;28.52;6.93;;;10.20;99.90;;;;;;5111672;28;20043;-68
2023/02/03 11:54:36;;;;;;;32.67;6.40;;;10.10;99.90;;;;;;5111103;28;20076;-68
2023/02/03 11:57:29;;;;;;;25.02;6.07;;;10.10;99.90;;;;;;5109785;28;20101;-68
2023/02/03 12:00:19;;;;;;;29.43;7.10;;;10.00;99.90;;;;;;5110434;28;20047;-68
2023/02/03 12:03:26;;;;;;;33.72;8.25;;;10.10;99.90;;;;;;5111153;28;20436;-67
2023/02/03 12:06:31;;;;;;;26.65;5.93;;;10.00;99.90;;;;;;5111736;28;20031;-70
2023/02/03 12:09:40;;;;;;;24.90;5.43;;;10.10;99.90;;;;;;5109666;28;20087;-71
2023/02/03 12:12:20;;;;;;;24.83;5.68;;;10.30;99.90;;;;;;5091964;27;20054;-68
2023/02/03 12:14:50;;;;;;;30.40;5.88;;;10.30;99.90;;;;;;5111882;28;20451;-68
2023/02/03 12:17:44;;;;;;;24.67;5.20;;;10.30;99.90;;;;;;5112216;28;20036;-68
2023/02/03 12:20:47;;;;;;;30.90;5.60;;;10.30;99.90;;;;;;5111159;28;20398;-68
2023/02/03 12:23:36;;;;;;;28.77;5.27;;;10.20;99.90;;;;;;5101167;28;20044;-68
2023/02/03 12:26:24;;;;;;;35.78;6.28;;;10.20;99.90;;;;;;5112191;28;20036;-70
2023/02/03 12:29:10;;;;;;;25.38;6.70;;;10.10;99.90;;;;;;5111115;28;20299;-71
2023/02/03 12:32:11;;;;;;;30.50;5.38;;;10.20;99.90;;;;;;5111691;28;20683;-68
2023/02/03 12:34:45;;;;;;;22.77;6.03;;;10.20;99.90;;;;;;5112705;28;20061;-71
2023/02/03 12:37:16;;;;;;;29.35;7.00;;;10.20;99.90;;;;;;5111568;28;20078;-71
2023/02/03 12:39:44;;;;;;;32.47;6.15;;;10.10;99.90;;;;;;5110917;28;20120;-71
2023/02/03 12:42:29;;;;;;;26.60;5.60;;;10.00;99.90;;;;;;5110910;28;20042;-71
2023/02/03 12:45:02;;;;;;;28.23;6.43;;;10.00;99.90;;;;;;5112452;28;20057;-67
2023/02/03 12:47:34;;;;;;;26.75;6.20;;;10.00;99.90;;;;;;5111138;28;20132;-68
2023/02/03 12:50:18;;;;;;;24.67;5.40;;;10.00;99.90;;;;;;5112221;28;20164;-68
2023/02/03 12:52:46;;;;;;;;;;;10.00;99.90;;;;;;5109408;28;20046;-68
2023/02/03 12:55:21;;;;;;;29.35;4.70;;;9.90;99.90;;;;;;5100549;28;20379;-68
2023/02/03 12:57:59;;;;;;;26.27;5.85;;;9.80;99.90;;;;;;5091818;28;20131;-68
2023/02/03 13:00:39;;;;;;;29.70;6.70;;;9.80;99.90;;;;;;5091594;28;20047;-68
2023/02/03 13:03:30;;;;;;;33.28;6.90;;;9.70;99.90;;;;;;5091960;28;20043;-68
2023/02/03 13:06:09;;;;;;;31.40;7.18;;;9.70;99.90;;;;;;5091788;28;20039;-68
2023/02/03 13:08:45;;;;;;;32.35;7.93;;;9.70;99.90;;;;;;5090205;28;20524;-70